Buoy 51940

sailwx.info

Track history (hours):
 
Tides and Currents Weather Stations Pressure Air Temp Water Temp Dewpoint Dewpoint Depression Visibility Wind Speed Wind Dir Waves Ship Positions

Drifting buoy 51940

Last reported at 2014-Dec-20 16:54 UTC. Time now 2014-Dec-20 17:58 UTC.
Position N 34°31' W 170°36'.

Water temperature 16.6 ° C

Date/timePositionNaut miles runAvg speedWind from/ knotsBaromVisibWave heightAir tempDewpointWater temp
2014-Dec-20 16:54N 34°31' W 170°36'216.0 16.6
2014-Dec-20 16:47N 34°32' W 170°38'0 0.0 16.6
2014-Dec-20 16:32N 34°32' W 170°38'0 0.0 16.6
2014-Dec-20 16:24N 34°32' W 170°38'1 0.7 16.6
2014-Dec-20 14:38N 34°32' W 170°39'0 0.0 16.7
2014-Dec-20 13:05N 34°32' W 170°39'2 0.6 16.6
2014-Dec-20 09:11N 34°33' W 170°42'1 5.5 16.8
2014-Dec-20 09:05N 34°33' W 170°42'0 0.0 16.8
2014-Dec-20 08:19N 34°33' W 170°42'1 1.0 16.8
2014-Dec-20 07:28N 34°34' W 170°43'227.9 16.8
2014-Dec-20 07:24N 34°35' W 170°45'0 0.0 16.8
2014-Dec-20 05:05N 34°35' W 170°45'1 1.1 16.8
2014-Dec-20 04:35N 34°35' W 170°45'0 1.4 16.8
2014-Dec-20 04:30N 34°35' W 170°45'2 5.6 16.8
2014-Dec-20 04:07N 34°35' W 170°48'0 0.0 16.8
2014-Dec-20 02:50N 34°35' W 170°48'0 0.0 16.9
2014-Dec-20 02:21N 34°35' W 170°48'0 0.0 16.9
2014-Dec-20 02:16N 34°35' W 170°48'0 0.0 16.9
2014-Dec-20 00:40N 34°35' W 170°48'0 2.6 16.9
2014-Dec-20 00:37N 34°35' W 170°48'2 0.7 16.9
2014-Dec-19 21:53N 34°37' W 170°49'133.3 17.1
2014-Dec-19 21:51N 34°38' W 170°50'0 0.0 17.1
2014-Dec-19 21:02N 34°38' W 170°50'1 1.2 17.2
2014-Dec-19 20:10N 34°39' W 170°50'3 1.7 17.2
2014-Dec-19 18:26N 34°40' W 170°54'0 0.0 17.3
2014-Dec-19 17:17N 34°40' W 170°54'0 1.9 17.3
2014-Dec-19 17:11N 34°40' W 170°54'0 0.6 17.3
2014-Dec-19 16:49N 34°40' W 170°54'0 1.5 17.4
2014-Dec-19 16:41N 34°40' W 170°54'216.2 17.4
2014-Dec-19 16:32N 34°39' W 170°57'2 2.0
2014-Dec-19 15:36N 34°39' W 170°59'2 2.8 17.3
2014-Dec-19 14:57N 34°39' W 170°57'218.3 17.4
2014-Dec-19 14:51N 34°39' W 170°59'0 0.0 17.4
2014-Dec-19 13:15N 34°39' W 170°59'4 1.0 17.4
2014-Dec-19 09:29N 34°37' W 171°03'2 2.1 17.6
2014-Dec-19 08:40N 34°36' W 171°05'0 0.0 17.7
2014-Dec-19 07:49N 34°36' W 171°05'117.5 17.7
2014-Dec-19 07:44N 34°35' W 171°06'2 0.8 17.7
2014-Dec-19 04:54N 34°35' W 171°09'0 0.0 17.8
2014-Dec-19 04:12N 34°35' W 171°09'2 1.1 17.8
2014-Dec-19 02:33N 34°35' W 171°11'2109.8 17.8
2014-Dec-19 02:32N 34°35' W 171°09'2 1.1 17.8
2014-Dec-19 00:49N 34°35' W 171°11'0 3.0 17.8
2014-Dec-19 00:47N 34°35' W 171°11'8 2.3 17.8
2014-Dec-18 21:24N 34°33' W 171°20'0 0.4 17.8
2014-Dec-18 20:31N 34°33' W 171°20'1 0.2 17.8
2014-Dec-18 17:35N 34°32' W 171°21'1 2.4 17.9
2014-Dec-18 17:19N 34°33' W 171°20'1 1.6 18.0
2014-Dec-18 16:54N 34°32' W 171°21'1 6.6 18.0
2014-Dec-18 16:46N 34°32' W 171°22'2 1.9 18.0
2014-Dec-18 15:38N 34°30' W 171°23'0 0.0 18.2
2014-Dec-18 15:08N 34°30' W 171°23'231.5 18.3
2014-Dec-18 15:04N 34°32' W 171°22'2 1.3 18.3
2014-Dec-18 13:29N 34°30' W 171°23'3 0.8 18.4
2014-Dec-18 09:49N 34°28' W 171°25'0 0.0 18.5
2014-Dec-18 09:04N 34°28' W 171°25'110.7 18.5
2014-Dec-18 08:59N 34°28' W 171°27'0 0.5 18.5
2014-Dec-18 08:07N 34°27' W 171°27'0 1.1 18.5
2014-Dec-18 07:43N 34°27' W 171°27'0 0.0 18.5
2014-Dec-18 06:08N 34°27' W 171°27'2 0.9 18.5
2014-Dec-18 04:23N 34°27' W 171°29'0 0.5 18.5
2014-Dec-18 03:44N 34°27' W 171°30'0 0.0 18.5
2014-Dec-18 02:47N 34°27' W 171°30'0 1.6 18.5
2014-Dec-18 02:44N 34°27' W 171°30'1 0.5 18.5
2014-Dec-18 00:58N 34°27' W 171°31'5 1.4 18.5
2014-Dec-17 21:41N 34°26' W 171°36'1 1.1 18.5
2014-Dec-17 20:51N 34°26' W 171°37'0 0.0 18.5
2014-Dec-17 17:49N 34°26' W 171°37'0 0.4 18.5
2014-Dec-17 16:57N 34°26' W 171°37'0 0.0 18.5
2014-Dec-17 16:13N 34°26' W 171°37'1 1.7 18.5
2014-Dec-17 15:23N 34°26' W 171°39'3 1.8 18.5
2014-Dec-17 13:30N 34°27' W 171°43'0 0.0 18.6
2014-Dec-17 10:11N 34°27' W 171°43'0 0.0 18.6
2014-Dec-17 09:18N 34°27' W 171°43'0 0.0 18.6
2014-Dec-17 08:33N 34°27' W 171°43'1 4.9 18.6
2014-Dec-17 08:26N 34°27' W 171°42'2 3.3 18.6
2014-Dec-17 07:41N 34°28' W 171°45'0 0.0 18.6
2014-Dec-17 06:50N 34°28' W 171°45'0 0.0 18.6
2014-Dec-17 04:59N 34°28' W 171°45'1 0.8 18.6
2014-Dec-17 04:05N 34°29' W 171°46'2 1.4 18.6
2014-Dec-17 02:56N 34°29' W 171°48'2 1.0 18.6
2014-Dec-17 01:10N 34°29' W 171°50'4 2.2 18.6
2014-Dec-16 23:29N 34°29' W 171°54'0 0.0 18.6
2014-Dec-16 21:12N 34°29' W 171°54'2 0.8 18.7
2014-Dec-16 18:23N 34°28' W 171°57'2 1.9 18.7
2014-Dec-16 17:10N 34°27' W 171°59'21 1.1 18.7
2014-Dec-15 22:24N 34°13' W 172°19'0 0.0 17.6
2014-Dec-15 21:34N 34°13' W 172°19'4 2.5 17.7
2014-Dec-15 19:49N 34°08' W 172°20'1 0.2 17.8
2014-Dec-15 17:21N 34°08' W 172°20'0 0.0 17.7
2014-Dec-15 17:19N 34°08' W 172°20'1 9.7 17.6
2014-Dec-15 17:11N 34°07' W 172°20'0 0.0 17.6
2014-Dec-15 15:47N 34°07' W 172°20'0 2.1 17.4
2014-Dec-15 15:33N 34°07' W 172°21'7 4.1 17.3
2014-Dec-15 13:58N 34°02' W 172°26'0 0.0 17.2
2014-Dec-15 12:11N 34°02' W 172°26'0 0.0 17.2
2014-Dec-15 09:13N 34°02' W 172°26'0 0.0 17.4
2014-Dec-15 09:09N 34°02' W 172°26'1 1.1 17.4
2014-Dec-15 08:26N 34°01' W 172°27'0 6.0 17.4
2014-Dec-15 08:21N 34°01' W 172°28'0 0.0 17.4
2014-Dec-15 07:34N 34°01' W 172°28'213.8 17.5
2014-Dec-15 07:27N 34°01' W 172°29'0 0.4 17.5
2014-Dec-15 06:02N 34°01' W 172°29'0 0.5 17.5
2014-Dec-15 04:59N 34°01' W 172°29'220.8 17.6
2014-Dec-15 04:53N 34°00' W 172°32'0 0.0 17.6
2014-Dec-15 04:16N 34°00' W 172°32'0 0.0
2014-Dec-15 03:19N 34°00' W 172°32'1 0.7 17.5
2014-Dec-15 01:35N 33°59' W 172°33'219.3 17.5
2014-Dec-15 01:30N 33°59' W 172°35'2 1.2 17.5
2014-Dec-14 23:49N 33°57' W 172°36'0 0.0 17.5
2014-Dec-14 21:53N 33°57' W 172°36'0 0.6 17.5
2014-Dec-14 21:07N 33°57' W 172°37'2 1.7 17.5
2014-Dec-14 20:12N 33°56' W 172°38'0 0.0 17.5
2014-Dec-14 17:45N 33°56' W 172°38'1 4.7 17.4
2014-Dec-14 17:35N 33°55' W 172°38'0 0.0 17.4
2014-Dec-14 17:32N 33°55' W 172°38'0 0.0 17.4
2014-Dec-14 16:04N 33°55' W 172°38'0 0.0
2014-Dec-14 15:59N 33°55' W 172°38'232.2 17.4
2014-Dec-14 15:56N 33°55' W 172°40'0 0.0 17.4
2014-Dec-14 14:11N 33°55' W 172°40'223.4 17.4
2014-Dec-14 14:05N 33°53' W 172°42'0 0.0 17.4
2014-Dec-14 09:32N 33°53' W 172°42'0 0.6 17.4
2014-Dec-14 08:46N 33°53' W 172°43'0 0.0 17.4
2014-Dec-14 08:43N 33°53' W 172°43'0 0.6 17.4
2014-Dec-14 07:49N 33°53' W 172°43'1 0.5 17.4
2014-Dec-14 05:19N 33°52' W 172°44'0 1.0 17.4
2014-Dec-14 04:49N 33°52' W 172°45'0 0.5 17.4
2014-Dec-14 03:43N 33°52' W 172°46'0 0.0 17.4
2014-Dec-14 03:30N 33°52' W 172°46'3 1.7 17.4
2014-Dec-14 01:41N 33°51' W 172°49'1 0.3 17.4
2014-Dec-14 00:04N 33°51' W 172°48'7 0.3 17.3
2014-Dec-13 00:16N 33°52' W 172°56'1 0.3 17.0
2014-Dec-12 21:49N 33°52' W 172°57'1 0.3 17.0
2014-Dec-12 17:08N 33°53' W 172°58'11 0.9 17.1
2014-Dec-12 04:34N 33°57' W 173°10'0 3.2 16.8
2014-Dec-12 04:26N 33°57' W 173°11'1 0.9 16.8
2014-Dec-12 02:47N 33°57' W 173°12'0 0.0 16.8
2014-Dec-12 02:16N 33°57' W 173°12'248.2 16.8
2014-Dec-12 02:13N 33°57' W 173°15'220.6 16.8
2014-Dec-12 02:06N 33°57' W 173°12'236.1 16.8
2014-Dec-12 02:02N 33°57' W 173°15'0 0.0 16.8
2014-Dec-12 00:27N 33°57' W 173°15'0 3.5 16.9
2014-Dec-12 00:23N 33°57' W 173°15'0 0.0 16.9
2014-Dec-11 22:49N 33°57' W 173°15'1 2.0 16.9
2014-Dec-11 22:09N 33°58' W 173°17'0 0.0 16.8
2014-Dec-11 21:19N 33°58' W 173°17'3 0.7 16.8
2014-Dec-11 17:41N 33°60' W 173°19'0 1.2 16.8
2014-Dec-11 17:17N 34°00' W 173°19'0 0.0 16.8
2014-Dec-11 17:10N 34°00' W 173°19'0 0.0 16.8
2014-Dec-11 16:34N 34°00' W 173°19'1 2.2 16.8
2014-Dec-11 15:59N 34°01' W 173°20'8 7.0 16.8
2014-Dec-11 14:47N 34°00' W 173°30'0 0.0 16.8
2014-Dec-11 14:38N 34°00' W 173°30'0 0.0 16.8
2014-Dec-11 13:01N 34°00' W 173°30'0 0.0 16.8
2014-Dec-11 08:54N 34°00' W 173°30'0 9.0 16.9
2014-Dec-11 08:51N 34°00' W 173°31'1 1.5 16.9
2014-Dec-11 08:05N 33°59' W 173°32'4 4.6 16.9
2014-Dec-11 07:08N 33°55' W 173°33'0 0.0
2014-Dec-11 04:56N 33°55' W 173°33'112.6 17.0
2014-Dec-11 04:51N 33°54' W 173°33'0 0.0 17.0
2014-Dec-11 04:45N 33°54' W 173°33'0 0.3 17.0
2014-Dec-11 04:04N 33°54' W 173°33'3 1.5 17.0
2014-Dec-11 02:23N 33°51' W 173°33'0 0.0 17.0
2014-Dec-11 02:16N 33°51' W 173°33'2 1.0 17.0
2014-Dec-11 00:38N 33°50' W 173°33'0 0.0 17.0
2014-Dec-10 21:38N 33°50' W 173°33'1 0.4 17.1
2014-Dec-10 18:10N 33°49' W 173°35'0 0.7 17.1
2014-Dec-10 17:33N 33°49' W 173°34'  
Track history (hours):
 
Tides and Currents Weather Stations Pressure Air Temp Water Temp Dewpoint Dewpoint Depression Visibility Wind Speed Wind Dir Waves Ship Positions

Drifting buoy 51940

Last reported at 2014-Dec-20 16:54 UTC. Time now 2014-Dec-20 17:58 UTC.
Position N 34°31' W 170°36'.

Water temperature 16.6 ° C

Date/timePositionNaut miles runAvg speedWind from/ knotsBaromVisibWave heightAir tempDewpointWater temp
2014-Dec-20 16:54N 34°31' W 170°36'216.0 16.6
2014-Dec-20 16:47N 34°32' W 170°38'0 0.0 16.6
2014-Dec-20 16:32N 34°32' W 170°38'0 0.0 16.6
2014-Dec-20 16:24N 34°32' W 170°38'1 0.7 16.6
2014-Dec-20 14:38N 34°32' W 170°39'0 0.0 16.7
2014-Dec-20 13:05N 34°32' W 170°39'2 0.6 16.6
2014-Dec-20 09:11N 34°33' W 170°42'1 5.5 16.8
2014-Dec-20 09:05N 34°33' W 170°42'0 0.0 16.8
2014-Dec-20 08:19N 34°33' W 170°42'1 1.0 16.8
2014-Dec-20 07:28N 34°34' W 170°43'227.9 16.8
2014-Dec-20 07:24N 34°35' W 170°45'0 0.0 16.8
2014-Dec-20 05:05N 34°35' W 170°45'1 1.1 16.8
2014-Dec-20 04:35N 34°35' W 170°45'0 1.4 16.8
2014-Dec-20 04:30N 34°35' W 170°45'2 5.6 16.8
2014-Dec-20 04:07N 34°35' W 170°48'0 0.0 16.8
2014-Dec-20 02:50N 34°35' W 170°48'0 0.0 16.9
2014-Dec-20 02:21N 34°35' W 170°48'0 0.0 16.9
2014-Dec-20 02:16N 34°35' W 170°48'0 0.0 16.9
2014-Dec-20 00:40N 34°35' W 170°48'0 2.6 16.9
2014-Dec-20 00:37N 34°35' W 170°48'2 0.7 16.9
2014-Dec-19 21:53N 34°37' W 170°49'133.3 17.1
2014-Dec-19 21:51N 34°38' W 170°50'0 0.0 17.1
2014-Dec-19 21:02N 34°38' W 170°50'1 1.2 17.2
2014-Dec-19 20:10N 34°39' W 170°50'3 1.7 17.2
2014-Dec-19 18:26N 34°40' W 170°54'0 0.0 17.3
2014-Dec-19 17:17N 34°40' W 170°54'0 1.9 17.3
2014-Dec-19 17:11N 34°40' W 170°54'0 0.6 17.3
2014-Dec-19 16:49N 34°40' W 170°54'0 1.5 17.4
2014-Dec-19 16:41N 34°40' W 170°54'216.2 17.4
2014-Dec-19 16:32N 34°39' W 170°57'2 2.0
2014-Dec-19 15:36N 34°39' W 170°59'2 2.8 17.3
2014-Dec-19 14:57N 34°39' W 170°57'218.3 17.4
2014-Dec-19 14:51N 34°39' W 170°59'0 0.0 17.4
2014-Dec-19 13:15N 34°39' W 170°59'4 1.0 17.4
2014-Dec-19 09:29N 34°37' W 171°03'2 2.1 17.6
2014-Dec-19 08:40N 34°36' W 171°05'0 0.0 17.7
2014-Dec-19 07:49N 34°36' W 171°05'117.5 17.7
2014-Dec-19 07:44N 34°35' W 171°06'2 0.8 17.7
2014-Dec-19 04:54N 34°35' W 171°09'0 0.0 17.8
2014-Dec-19 04:12N 34°35' W 171°09'2 1.1 17.8
2014-Dec-19 02:33N 34°35' W 171°11'2109.8 17.8
2014-Dec-19 02:32N 34°35' W 171°09'2 1.1 17.8
2014-Dec-19 00:49N 34°35' W 171°11'0 3.0 17.8
2014-Dec-19 00:47N 34°35' W 171°11'8 2.3 17.8
2014-Dec-18 21:24N 34°33' W 171°20'0 0.4 17.8
2014-Dec-18 20:31N 34°33' W 171°20'1 0.2 17.8
2014-Dec-18 17:35N 34°32' W 171°21'1 2.4 17.9
2014-Dec-18 17:19N 34°33' W 171°20'1 1.6 18.0
2014-Dec-18 16:54N 34°32' W 171°21'1 6.6 18.0
2014-Dec-18 16:46N 34°32' W 171°22'2 1.9 18.0
2014-Dec-18 15:38N 34°30' W 171°23'0 0.0 18.2
2014-Dec-18 15:08N 34°30' W 171°23'231.5 18.3
2014-Dec-18 15:04N 34°32' W 171°22'2 1.3 18.3
2014-Dec-18 13:29N 34°30' W 171°23'3 0.8 18.4
2014-Dec-18 09:49N 34°28' W 171°25'0 0.0 18.5
2014-Dec-18 09:04N 34°28' W 171°25'110.7 18.5
2014-Dec-18 08:59N 34°28' W 171°27'0 0.5 18.5
2014-Dec-18 08:07N 34°27' W 171°27'0 1.1 18.5
2014-Dec-18 07:43N 34°27' W 171°27'0 0.0 18.5
2014-Dec-18 06:08N 34°27' W 171°27'2 0.9 18.5
2014-Dec-18 04:23N 34°27' W 171°29'0 0.5 18.5
2014-Dec-18 03:44N 34°27' W 171°30'0 0.0 18.5
2014-Dec-18 02:47N 34°27' W 171°30'0 1.6 18.5
2014-Dec-18 02:44N 34°27' W 171°30'1 0.5 18.5
2014-Dec-18 00:58N 34°27' W 171°31'5 1.4 18.5
2014-Dec-17 21:41N 34°26' W 171°36'1 1.1 18.5
2014-Dec-17 20:51N 34°26' W 171°37'0 0.0 18.5
2014-Dec-17 17:49N 34°26' W 171°37'0 0.4 18.5
2014-Dec-17 16:57N 34°26' W 171°37'0 0.0 18.5
2014-Dec-17 16:13N 34°26' W 171°37'1 1.7 18.5
2014-Dec-17 15:23N 34°26' W 171°39'3 1.8 18.5
2014-Dec-17 13:30N 34°27' W 171°43'0 0.0 18.6
2014-Dec-17 10:11N 34°27' W 171°43'0 0.0 18.6
2014-Dec-17 09:18N 34°27' W 171°43'0 0.0 18.6
2014-Dec-17 08:33N 34°27' W 171°43'1 4.9 18.6
2014-Dec-17 08:26N 34°27' W 171°42'2 3.3 18.6
2014-Dec-17 07:41N 34°28' W 171°45'0 0.0 18.6
2014-Dec-17 06:50N 34°28' W 171°45'0 0.0 18.6
2014-Dec-17 04:59N 34°28' W 171°45'1 0.8 18.6
2014-Dec-17 04:05N 34°29' W 171°46'2 1.4 18.6
2014-Dec-17 02:56N 34°29' W 171°48'2 1.0 18.6
2014-Dec-17 01:10N 34°29' W 171°50'4 2.2 18.6
2014-Dec-16 23:29N 34°29' W 171°54'0 0.0 18.6
2014-Dec-16 21:12N 34°29' W 171°54'2 0.8 18.7
2014-Dec-16 18:23N 34°28' W 171°57'2 1.9 18.7
2014-Dec-16 17:10N 34°27' W 171°59'21 1.1 18.7
2014-Dec-15 22:24N 34°13' W 172°19'0 0.0 17.6
2014-Dec-15 21:34N 34°13' W 172°19'4 2.5 17.7
2014-Dec-15 19:49N 34°08' W 172°20'1 0.2 17.8
2014-Dec-15 17:21N 34°08' W 172°20'0 0.0 17.7
2014-Dec-15 17:19N 34°08' W 172°20'1 9.7 17.6
2014-Dec-15 17:11N 34°07' W 172°20'0 0.0 17.6
2014-Dec-15 15:47N 34°07' W 172°20'0 2.1 17.4
2014-Dec-15 15:33N 34°07' W 172°21'7 4.1 17.3
2014-Dec-15 13:58N 34°02' W 172°26'0 0.0 17.2
2014-Dec-15 12:11N 34°02' W 172°26'0 0.0 17.2
2014-Dec-15 09:13N 34°02' W 172°26'0 0.0 17.4
2014-Dec-15 09:09N 34°02' W 172°26'1 1.1 17.4
2014-Dec-15 08:26N 34°01' W 172°27'0 6.0 17.4
2014-Dec-15 08:21N 34°01' W 172°28'0 0.0 17.4
2014-Dec-15 07:34N 34°01' W 172°28'213.8 17.5
2014-Dec-15 07:27N 34°01' W 172°29'0 0.4 17.5
2014-Dec-15 06:02N 34°01' W 172°29'0 0.5 17.5
2014-Dec-15 04:59N 34°01' W 172°29'220.8 17.6
2014-Dec-15 04:53N 34°00' W 172°32'0 0.0 17.6
2014-Dec-15 04:16N 34°00' W 172°32'0 0.0
2014-Dec-15 03:19N 34°00' W 172°32'1 0.7 17.5
2014-Dec-15 01:35N 33°59' W 172°33'219.3 17.5
2014-Dec-15 01:30N 33°59' W 172°35'2 1.2 17.5
2014-Dec-14 23:49N 33°57' W 172°36'0 0.0 17.5
2014-Dec-14 21:53N 33°57' W 172°36'0 0.6 17.5
2014-Dec-14 21:07N 33°57' W 172°37'2 1.7 17.5
2014-Dec-14 20:12N 33°56' W 172°38'0 0.0 17.5
2014-Dec-14 17:45N 33°56' W 172°38'1 4.7 17.4
2014-Dec-14 17:35N 33°55' W 172°38'0 0.0 17.4
2014-Dec-14 17:32N 33°55' W 172°38'0 0.0 17.4
2014-Dec-14 16:04N 33°55' W 172°38'0 0.0
2014-Dec-14 15:59N 33°55' W 172°38'232.2 17.4
2014-Dec-14 15:56N 33°55' W 172°40'0 0.0 17.4
2014-Dec-14 14:11N 33°55' W 172°40'223.4 17.4
2014-Dec-14 14:05N 33°53' W 172°42'0 0.0 17.4
2014-Dec-14 09:32N 33°53' W 172°42'0 0.6 17.4
2014-Dec-14 08:46N 33°53' W 172°43'0 0.0 17.4
2014-Dec-14 08:43N 33°53' W 172°43'0 0.6 17.4
2014-Dec-14 07:49N 33°53' W 172°43'1 0.5 17.4
2014-Dec-14 05:19N 33°52' W 172°44'0 1.0 17.4
2014-Dec-14 04:49N 33°52' W 172°45'0 0.5 17.4
2014-Dec-14 03:43N 33°52' W 172°46'0 0.0 17.4
2014-Dec-14 03:30N 33°52' W 172°46'3 1.7 17.4
2014-Dec-14 01:41N 33°51' W 172°49'1 0.3 17.4
2014-Dec-14 00:04N 33°51' W 172°48'7 0.3 17.3
2014-Dec-13 00:16N 33°52' W 172°56'1 0.3 17.0
2014-Dec-12 21:49N 33°52' W 172°57'1 0.3 17.0
2014-Dec-12 17:08N 33°53' W 172°58'11 0.9 17.1
2014-Dec-12 04:34N 33°57' W 173°10'0 3.2 16.8
2014-Dec-12 04:26N 33°57' W 173°11'1 0.9 16.8
2014-Dec-12 02:47N 33°57' W 173°12'0 0.0 16.8
2014-Dec-12 02:16N 33°57' W 173°12'248.2 16.8
2014-Dec-12 02:13N 33°57' W 173°15'220.6 16.8
2014-Dec-12 02:06N 33°57' W 173°12'236.1 16.8
2014-Dec-12 02:02N 33°57' W 173°15'0 0.0 16.8
2014-Dec-12 00:27N 33°57' W 173°15'0 3.5 16.9
2014-Dec-12 00:23N 33°57' W 173°15'0 0.0 16.9
2014-Dec-11 22:49N 33°57' W 173°15'1 2.0 16.9
2014-Dec-11 22:09N 33°58' W 173°17'0 0.0 16.8
2014-Dec-11 21:19N 33°58' W 173°17'3 0.7 16.8
2014-Dec-11 17:41N 33°60' W 173°19'0 1.2 16.8
2014-Dec-11 17:17N 34°00' W 173°19'0 0.0 16.8
2014-Dec-11 17:10N 34°00' W 173°19'0 0.0 16.8
2014-Dec-11 16:34N 34°00' W 173°19'1 2.2 16.8
2014-Dec-11 15:59N 34°01' W 173°20'8 7.0 16.8
2014-Dec-11 14:47N 34°00' W 173°30'0 0.0 16.8
2014-Dec-11 14:38N 34°00' W 173°30'0 0.0 16.8
2014-Dec-11 13:01N 34°00' W 173°30'0 0.0 16.8
2014-Dec-11 08:54N 34°00' W 173°30'0 9.0 16.9
2014-Dec-11 08:51N 34°00' W 173°31'1 1.5 16.9
2014-Dec-11 08:05N 33°59' W 173°32'4 4.6 16.9
2014-Dec-11 07:08N 33°55' W 173°33'0 0.0
2014-Dec-11 04:56N 33°55' W 173°33'112.6 17.0
2014-Dec-11 04:51N 33°54' W 173°33'0 0.0 17.0
2014-Dec-11 04:45N 33°54' W 173°33'0 0.3 17.0
2014-Dec-11 04:04N 33°54' W 173°33'3 1.5 17.0
2014-Dec-11 02:23N 33°51' W 173°33'0 0.0 17.0
2014-Dec-11 02:16N 33°51' W 173°33'2 1.0 17.0
2014-Dec-11 00:38N 33°50' W 173°33'0 0.0 17.0
2014-Dec-10 21:38N 33°50' W 173°33'1 0.4 17.1
2014-Dec-10 18:10N 33°49' W 173°35'0 0.7 17.1
2014-Dec-10 17:33N 33°49' W 173°34'  

Dump ship's entire track history